SLRY  Reyes  Airport

Reyes, Bolivia

Add Bookmark
Status IATA
Operational REY
Latitude Longitude
14° 18' 15" S 67° 21' 12" W
-14.304400 -67.353401
Local (DST -4) UTC (GMT -4)
Mar 29, 2015 12:04 Mar 29, 2015 16:04
Sunrise-Sunset Local UTC
Begin Civil Twilight 06:11 10:11
Sunrise 06:33 10:33
Sunset 06:34 22:34
End Civil Twilight 06:56 22:56

Current Weather

METAR Observed VFR
SLRY 282200Z 00000KT 9999 SCT030 27/21 Q1014 Sat, Mar 28, 2015 @ 22:00 UTC
(18 Hours, 4 Minutes ago)
Visual Flight Rules
Wind Visibility Clouds Conditions
Calm 10 km or more
  • Scattered at 3,000' AGL
  • No significant weather
Temperatures Readings Precipitation
Current Temp 27°C (81°F)
Dewpoint 21°C (70°F)
Heat Index 29°C (85°F)
Humidity 70%
Altimeter 29.94"Hg
Sea Level Pressure 1014mb
Field Elevation 918.64'
None Recorded

Additional weather within a 92.6km radius of SLRY

Map ICAO Location
SLRQ 20.7km S (229°)

24 Hour Weather History

Loading
-

24 Hour Weather Graphs

Loading
-

CheckWX.com is intended as a tool to help pilots better visualize weather data. It is not intended as a substitute for an official weather briefing obtained from a Flight Service Station. CheckWX.com does not meet the FAA requirements for an official pre-flight weather briefing. Therefore, it's important that pilots still call and obtain an official FSS pre-flight weather briefing.